Time;durP1;ratioP1;P1;durP2;ratioP2;P2;SDS_P1;SDS_P2;PMS_P1;PMS_P2;Temp;Humidity;BMP_temperature;BMP_pressure;BME280_temperature;BME280_humidity;BME280_pressure;Samples;Min_cycle;Max_cycle;Signal;HPM_P1;HPM_P2
2021/03/21 00:01:57;;;;;;;4.07;2.60;;;;;;;22.74;36.16;94689.00;5041356;28;20479;-77
2021/03/21 00:04:23;;;;;;;3.35;2.72;;;;;;;22.73;36.18;94687.53;5050706;28;20494;-77
2021/03/21 00:06:48;;;;;;;3.08;2.33;;;;;;;22.81;35.93;94704.75;5049941;28;20044;-77
2021/03/21 00:09:14;;;;;;;3.92;2.60;;;;;;;22.78;36.06;94705.78;5050563;28;20102;-77
2021/03/21 00:11:39;;;;;;;3.75;2.50;;;;;;;22.68;36.26;94685.59;5050901;28;20560;-77
2021/03/21 00:14:05;;;;;;;3.10;2.17;;;;;;;22.69;36.34;94692.50;5051327;28;20033;-78
2021/03/21 00:16:31;;;;;;;3.30;2.50;;;;;;;22.66;36.28;94688.09;5050697;28;20025;-77
2021/03/21 00:18:57;;;;;;;2.75;2.20;;;;;;;22.58;36.43;94676.31;5050802;28;20492;-77
2021/03/21 00:21:23;;;;;;;3.40;2.67;;;;;;;22.59;36.47;94699.56;5040667;28;20458;-77
2021/03/21 00:23:48;;;;;;;3.33;2.40;;;;;;;22.59;36.59;94694.13;5057336;28;20048;-77
2021/03/21 00:26:14;;;;;;;3.75;2.35;;;;;;;22.40;36.28;94657.22;5054396;28;20032;-76
2021/03/21 00:28:40;;;;;;;3.17;2.22;;;;;;;22.63;36.37;94694.56;5047601;28;20409;-77
2021/03/21 00:31:06;;;;;;;2.90;2.10;;;;;;;22.56;36.40;94678.81;5040909;28;20017;-77
2021/03/21 00:33:33;;;;;;;3.42;2.60;;;;;;;22.61;36.27;94681.47;5049970;28;20570;-76
2021/03/21 00:35:58;;;;;;;3.65;2.60;;;;;;;22.51;36.56;94660.53;5048371;28;20067;-76
2021/03/21 00:38:35;;;;;;;3.50;2.20;;;;;;;22.60;36.16;94646.59;5031556;28;20029;-77
2021/03/21 00:41:00;;;;;;;3.47;2.17;;;;;;;22.61;36.45;94653.50;5030763;28;20021;-76
2021/03/21 00:43:26;;;;;;;2.60;2.25;;;;;;;22.62;36.22;94655.00;5030681;28;20497;-77
2021/03/21 00:45:51;;;;;;;3.47;2.33;;;;;;;22.54;36.44;94651.34;5029118;28;20478;-77
2021/03/21 00:48:19;;;;;;;3.45;2.17;;;;;;;22.61;36.41;94659.69;5030837;28;20505;-77
2021/03/21 00:50:45;;;;;;;3.65;2.47;;;;;;;22.59;36.52;94659.47;5030518;28;20033;-76
2021/03/21 00:53:10;;;;;;;2.75;2.20;;;;;;;22.57;36.42;94658.50;5031070;28;20035;-76
2021/03/21 00:55:36;;;;;;;3.97;2.50;;;;;;;22.60;36.34;94652.03;5037228;28;20040;-77
2021/03/21 00:58:01;;;;;;;3.58;2.40;;;;;;;22.57;36.25;94664.69;5050422;28;20021;-76
2021/03/21 01:00:29;;;;;;;2.90;2.28;;;;;;;22.42;36.09;94639.16;5050869;28;20039;-76
2021/03/21 01:02:55;;;;;;;3.35;2.47;;;;;;;22.47;36.41;94643.78;5054099;28;20029;-76
2021/03/21 01:05:28;;;;;;;2.47;1.80;;;;;;;22.23;36.29;94613.88;5052246;28;20029;-77
2021/03/21 01:07:54;;;;;;;3.63;2.30;;;;;;;22.51;36.29;94633.34;5052447;28;20486;-76
2021/03/21 01:10:22;;;;;;;2.83;1.88;;;;;;;22.46;36.45;94634.88;5052622;28;20029;-76
2021/03/21 01:12:52;;;;;;;2.72;2.10;;;;;;;22.40;36.34;94638.91;5052142;28;20468;-77
2021/03/21 01:15:18;;;;;;;2.95;2.17;;;;;;;22.53;36.28;94641.75;5052767;28;20021;-76
2021/03/21 01:17:44;;;;;;;3.67;2.15;;;;;;;22.33;36.41;94634.06;5053881;28;20437;-76
2021/03/21 01:20:10;;;;;;;2.85;2.03;;;;;;;22.31;36.33;94620.22;5052661;28;20025;-76
2021/03/21 01:22:35;;;;;;;3.88;2.22;;;;;;;22.54;36.34;94626.88;5052002;28;20039;-76
2021/03/21 01:25:01;;;;;;;3.97;2.58;;;;;;;22.54;36.43;94615.97;5053839;28;20076;-77
2021/03/21 01:27:26;;;;;;;2.50;1.85;;;;;;;22.29;36.25;94584.63;5053372;28;20501;-76
2021/03/21 01:29:52;;;;;;;3.53;2.30;;;;;;;22.54;36.55;94627.63;5051666;28;20029;-76
2021/03/21 01:32:17;;;;;;;3.22;2.15;;;;;;;22.51;36.50;94633.34;5052876;28;20028;-77
2021/03/21 01:34:43;;;;;;;3.47;2.20;;;;;;;22.37;36.41;94633.75;5053283;28;20047;-77
2021/03/21 01:37:08;;;;;;;2.95;2.20;;;;;;;22.52;36.49;94659.31;5053374;28;20053;-77
2021/03/21 01:39:34;;;;;;;3.20;2.17;;;;;;;22.33;36.33;94634.06;5053444;28;20029;-77
2021/03/21 01:42:03;;;;;;;2.63;2.00;;;;;;;22.53;36.42;94666.22;5051960;28;20032;-78
2021/03/21 01:44:29;;;;;;;2.85;2.17;;;;;;;22.24;36.27;94615.38;5051901;28;20056;-76
2021/03/21 01:46:54;;;;;;;3.42;2.13;;;;;;;22.51;36.45;94627.91;5053389;28;20029;-75
2021/03/21 01:49:29;;;;;;;4.13;2.20;;;;;;;22.50;36.50;94637.31;5053186;28;20068;-76
2021/03/21 01:51:55;;;;;;;2.80;1.98;;;;;;;22.41;36.42;94613.19;5051974;28;20099;-77
2021/03/21 01:54:21;;;;;;;2.95;1.70;;;;;;;22.49;36.29;94620.25;5051613;28;20024;-77
2021/03/21 01:56:46;;;;;;;3.47;2.10;;;;;;;22.32;36.31;94594.50;5051912;28;20021;-77
2021/03/21 01:59:15;;;;;;;3.10;2.00;;;;;;;22.39;36.88;94604.81;5031532;28;20021;-77
2021/03/21 02:01:42;;;;;;;2.85;1.90;;;;;;;22.39;36.42;94582.28;5032184;28;20178;-77
2021/03/21 02:04:07;;;;;;;3.90;2.10;;;;;;;22.39;36.55;94599.38;5032101;28;20033;-76
2021/03/21 02:06:36;;;;;;;3.53;2.20;;;;;;;22.48;36.36;94607.16;5031432;28;20785;-77
2021/03/21 02:09:04;;;;;;;3.45;2.03;;;;;;;22.50;36.42;94604.69;5032608;28;20087;-77
2021/03/21 02:11:43;;;;;;;3.15;2.17;;;;;;;22.17;36.26;94561.50;5031346;28;20021;-77
2021/03/21 02:14:13;;;;;;;3.45;2.13;;;;;;;22.49;36.26;94603.19;5031712;28;20033;-78
2021/03/21 02:16:45;;;;;;;3.03;1.95;;;;;;;22.32;36.54;94594.50;5031470;28;20033;-77
2021/03/21 02:19:39;;;;;;;3.75;2.33;;;;;;;22.49;36.58;94614.06;5032267;28;20045;-76
2021/03/21 02:22:10;;;;;;;2.28;1.70;;;;;;;22.46;36.45;94606.94;5034534;28;20115;-77
2021/03/21 02:24:55;;;;;;;2.42;1.58;;;;;;;22.43;36.32;94599.81;5030798;28;20112;-76
2021/03/21 02:27:30;;;;;;;2.72;1.90;;;;;;;22.41;36.49;94615.91;5032448;28;20502;-77
2021/03/21 02:29:58;;;;;;;3.28;1.90;;;;;;;22.33;36.47;94601.41;5031548;28;20032;-77
2021/03/21 02:32:34;;;;;;;2.75;1.52;;;;;;;22.35;36.36;94604.34;5032526;28;20029;-77
2021/03/21 02:35:11;;;;;;;3.47;1.80;;;;;;;22.33;36.64;94611.53;5032723;28;20055;-77
2021/03/21 02:37:49;;;;;;;3.17;1.60;;;;;;;22.15;36.53;94580.31;5032245;28;20102;-77
2021/03/21 02:40:20;;;;;;;2.53;1.83;;;;;;;22.37;36.52;94604.56;5048107;28;20494;-77
2021/03/21 02:42:51;;;;;;;2.90;2.00;;;;;;;22.37;36.57;94629.06;5048007;28;20051;-76
2021/03/21 02:45:22;;;;;;;2.83;2.05;;;;;;;22.37;36.63;94618.16;5049092;28;20071;-76
2021/03/21 02:47:48;;;;;;;2.42;1.75;;;;;;;22.40;36.39;94621.88;5052195;28;20017;-75
2021/03/21 02:50:45;;;;;;;3.13;2.13;;;;;;;22.40;36.44;94622.59;5034679;28;20025;-76
2021/03/21 02:53:51;;;;;;;2.80;1.90;;;;;;;22.39;36.67;94609.50;5050099;28;20041;-78
2021/03/21 02:56:19;;;;;;;2.67;1.70;;;;;;;22.39;36.53;94621.13;5009766;28;20438;-78
2021/03/21 02:58:48;;;;;;;3.22;1.85;;;;;;;22.36;36.60;94605.84;5020275;28;20399;-76
2021/03/21 03:01:24;;;;;;;2.75;1.70;;;;;;;22.33;36.95;94604.13;5063729;28;20036;-76
2021/03/21 03:03:52;;;;;;;3.17;2.10;;;;;;;22.36;36.43;94605.09;5034941;28;20051;-77
2021/03/21 03:06:30;;;;;;;2.60;2.00;;;;;;;22.01;36.63;94548.81;5034486;28;20562;-77
2021/03/21 03:09:03;;;;;;;2.97;2.00;;;;;;;22.38;36.44;94602.59;5050742;28;20035;-78
2021/03/21 03:11:46;;;;;;;3.10;1.92;;;;;;;22.36;36.69;94603.13;5035140;28;20036;-77
2021/03/21 03:14:14;;;;;;;3.05;1.90;;;;;;;22.34;36.45;94602.88;5051899;28;20135;-77
2021/03/21 03:16:56;;;;;;;2.78;1.77;;;;;;;22.38;36.66;94603.31;5051413;28;20086;-76
2021/03/21 03:19:46;;;;;;;2.63;1.67;;;;;;;22.29;36.54;94595.53;5034747;28;20025;-77
2021/03/21 03:22:36;;;;;;;2.47;1.98;;;;;;;22.35;36.68;94598.91;5034921;28;20029;-77
2021/03/21 03:25:08;;;;;;;3.38;1.73;;;;;;;22.35;36.43;94590.75;5050566;28;20013;-77
2021/03/21 03:27:40;;;;;;;2.95;1.88;;;;;;;22.36;36.56;94584.06;5052245;28;20364;-77
2021/03/21 03:30:12;;;;;;;2.72;1.60;;;;;;;22.34;36.65;94578.38;5050845;28;20143;-76
2021/03/21 03:32:38;;;;;;;2.72;1.63;;;;;;;22.30;36.78;94588.84;5049844;28;20029;-75
2021/03/21 03:35:04;;;;;;;2.38;1.52;;;;;;;22.30;36.63;94572.53;5051624;28;20028;-76
2021/03/21 03:37:30;;;;;;;2.70;1.70;;;;;;;22.34;36.63;94596.69;5050403;28;20473;-76
2021/03/21 03:39:55;;;;;;;2.47;1.48;;;;;;;22.32;36.56;94594.50;5051514;28;20099;-77
2021/03/21 03:42:32;;;;;;;2.88;1.95;;;;;;;22.33;36.54;94601.41;5052013;28;20522;-77
2021/03/21 03:45:05;;;;;;;3.15;1.70;;;;;;;22.34;36.65;94600.16;5050988;28;20036;-77
2021/03/21 03:47:53;;;;;;;2.70;1.83;;;;;;;22.32;36.40;94599.22;5050503;28;20017;-77
2021/03/21 03:50:30;;;;;;;3.08;1.70;;;;;;;22.35;36.57;94609.06;5050097;28;20497;-77
2021/03/21 03:52:55;;;;;;;2.08;1.40;;;;;;;22.33;36.50;94606.09;5050252;28;20367;-79
2021/03/21 03:55:20;;;;;;;3.70;1.80;;;;;;;22.33;36.54;94616.97;5051825;28;20095;-76
2021/03/21 03:57:52;;;;;;;3.28;1.58;;;;;;;22.34;36.47;94611.03;5052123;28;20550;-77
2021/03/21 04:00:21;;;;;;;3.20;1.65;;;;;;;22.32;36.46;94608.09;5035506;28;20025;-77
2021/03/21 04:02:47;;;;;;;2.58;1.60;;;;;;;22.31;36.69;94614.78;5050840;28;20526;-76
2021/03/21 04:05:21;;;;;;;3.15;1.65;;;;;;;22.30;36.62;94615.28;5052343;28;20021;-76
2021/03/21 04:07:51;;;;;;;2.92;1.70;;;;;;;22.27;36.69;94592.59;5052079;28;20041;-77
2021/03/21 04:10:22;;;;;;;2.70;1.55;;;;;;;22.31;36.82;94598.44;5049377;28;20532;-76
2021/03/21 04:13:23;;;;;;;3.20;1.70;;;;;;;22.31;36.38;94606.63;5049918;28;20335;-77
2021/03/21 04:15:51;;;;;;;2.83;1.60;;;;;;;22.28;36.60;94599.47;5050686;28;20029;-77
2021/03/21 04:18:21;;;;;;;2.35;1.50;;;;;;;22.09;36.63;94576.19;5050560;28;20564;-77
2021/03/21 04:21:08;;;;;;;2.67;1.60;;;;;;;22.26;36.54;94601.97;5036410;28;20037;-76
2021/03/21 04:23:43;;;;;;;3.00;1.85;;;;;;;22.20;36.64;94608.72;5043706;28;20037;-77
2021/03/21 04:26:11;;;;;;;2.88;1.80;;;;;;;22.20;36.69;94609.44;5046407;28;20052;-76
2021/03/21 04:28:59;;;;;;;2.42;1.50;;;;;;;22.19;36.52;94613.38;5029488;28;20038;-76
2021/03/21 04:31:25;;;;;;;2.83;1.60;;;;;;;22.26;36.46;94618.31;5031919;28;20029;-76
2021/03/21 04:34:09;;;;;;;2.88;1.80;;;;;;;22.07;36.61;94584.84;5032708;28;20197;-75
2021/03/21 04:36:37;;;;;;;3.45;2.10;;;;;;;22.29;36.43;94616.56;5033655;28;20136;-76
2021/03/21 04:39:29;;;;;;;3.83;1.88;;;;;;;22.26;36.56;94610.13;5053100;28;20030;-75
2021/03/21 04:42:41;;;;;;;2.97;1.70;;;;;;;22.28;36.55;94610.34;5050801;28;20524;-75
2021/03/21 04:45:10;;;;;;;2.90;1.58;;;;;;;21.92;36.38;94557.31;5051567;28;20063;-76
2021/03/21 04:47:41;;;;;;;3.53;1.58;;;;;;;22.25;36.68;94616.81;5053431;28;20021;-75
2021/03/21 04:50:07;;;;;;;2.63;1.60;;;;;;;22.22;36.52;94615.13;5053361;28;20040;-77
2021/03/21 04:52:52;;;;;;;3.28;1.60;;;;;;;21.97;36.48;94572.84;5054075;28;20033;-77
2021/03/21 04:55:25;;;;;;;2.90;1.80;;;;;;;22.01;36.53;94592.31;5036503;28;20086;-77
2021/03/21 04:57:50;;;;;;;3.05;1.92;;;;;;;22.16;36.46;94597.38;5036641;28;20033;-75
2021/03/21 05:00:27;;;;;;;2.90;1.65;;;;;;;22.19;36.54;94602.50;5052374;28;20125;-76
2021/03/21 05:02:59;;;;;;;3.83;1.90;;;;;;;22.22;36.54;94606.97;5035746;28;20029;-77
2021/03/21 05:05:36;;;;;;;3.58;1.85;;;;;;;22.23;36.41;94608.44;5052419;28;20021;-76
2021/03/21 05:08:09;;;;;;;3.40;1.95;;;;;;;22.28;36.06;94610.34;5053287;28;20060;-77
2021/03/21 05:10:46;;;;;;;3.10;1.77;;;;;;;22.26;36.47;94596.53;5036783;28;20032;-77
2021/03/21 05:13:35;;;;;;;4.90;2.15;;;;;;;22.28;36.51;94599.47;5036527;28;20100;-76
2021/03/21 05:16:04;;;;;;;3.15;1.60;;;;;;;22.31;36.72;94598.44;5052730;28;20493;-77
2021/03/21 05:18:40;;;;;;;3.47;2.20;;;;;;;22.34;36.93;94586.56;5051835;28;20033;-77
2021/03/21 05:21:12;;;;;;;5.03;1.98;;;;;;;22.34;37.57;94581.09;5023363;28;20866;-78
2021/03/21 05:23:58;;;;;;;3.17;2.25;;;;;;;22.34;37.72;94564.78;5037396;28;20021;-78
2021/03/21 05:26:28;;;;;;;5.28;1.80;;;;;;;22.34;37.77;94575.66;5040992;28;20029;-77
2021/03/21 05:28:55;;;;;;;;;;;;;;;22.35;37.73;94582.59;5042023;28;20059;-78
2021/03/21 05:31:20;;;;;;;2.42;1.80;;;;;;;22.34;37.78;94581.09;5041240;28;19909;-75
2021/03/21 05:33:46;;;;;;;3.42;1.98;;;;;;;22.35;37.83;94582.59;5041439;28;20068;-74
2021/03/21 05:36:45;;;;;;;3.97;1.90;;;;;;;22.08;37.74;94548.25;5050688;28;20049;-75
2021/03/21 05:39:30;;;;;;;3.30;1.88;;;;;;;22.37;37.69;94590.97;5050396;28;20025;-74
2021/03/21 05:42:04;;;;;;;4.00;2.20;;;;;;;22.38;37.41;94595.16;5040034;28;20036;-75
2021/03/21 05:44:57;;;;;;;3.83;1.98;;;;;;;22.38;37.63;94592.44;5035670;28;20044;-78
2021/03/21 05:47:31;;;;;;;3.58;1.80;;;;;;;22.35;37.60;94598.19;5037990;28;20021;-77
2021/03/21 05:50:30;;;;;;;2.95;1.50;;;;;;;22.35;37.29;94601.63;5041471;28;20045;-76
2021/03/21 05:53:14;;;;;;;3.78;1.95;;;;;;;22.37;37.43;94607.28;5039530;28;20375;-76
2021/03/21 05:56:09;;;;;;;4.25;1.95;;;;;;;22.37;37.21;94596.41;5036542;28;20043;-76
2021/03/21 05:59:07;;;;;;;3.83;1.90;;;;;;;22.37;37.33;94601.84;5039542;28;20025;-76
2021/03/21 06:01:41;;;;;;;4.80;1.60;;;;;;;22.38;37.17;94619.66;5043916;28;20389;-76
2021/03/21 06:04:51;;;;;;;2.45;1.70;;;;;;;22.40;37.10;94622.59;5037766;28;20116;-80
2021/03/21 06:07:19;;;;;;;3.38;1.63;;;;;;;22.41;37.18;94618.63;5018803;28;20083;-77
2021/03/21 06:10:06;;;;;;;4.00;1.80;;;;;;;22.38;37.28;94603.31;5039324;28;20032;-79
2021/03/21 06:12:47;;;;;;;4.15;2.30;;;;;;;22.38;37.14;94603.31;5034206;28;20025;-75
2021/03/21 06:15:37;;;;;;;3.60;1.80;;;;;;;22.38;37.28;94603.31;5033946;28;20580;-76
2021/03/21 06:18:18;;;;;;;4.40;1.63;;;;;;;22.40;37.13;94605.53;5034770;28;20060;-76
2021/03/21 06:21:19;;;;;;;4.28;1.75;;;;;;;22.40;37.31;94611.72;5032120;28;20091;-77
2021/03/21 06:24:07;;;;;;;5.35;1.90;;;;;;;22.42;37.17;94620.13;4983303;28;20073;-76
2021/03/21 06:26:42;;;;;;;3.78;1.70;;;;;;;22.41;36.93;94613.19;5033909;28;20025;-77
2021/03/21 06:29:29;;;;;;;5.53;1.90;;;;;;;22.43;37.33;94624.28;5033224;28;20025;-76
2021/03/21 06:32:32;;;;;;;3.17;1.65;;;;;;;22.43;37.30;94627.75;5039105;28;20045;-84
2021/03/21 06:35:33;;;;;;;3.95;1.60;;;;;;;22.45;37.41;94640.81;5034792;28;20029;-77
2021/03/21 06:38:23;;;;;;;5.97;1.70;;;;;;;22.40;37.21;94624.59;5043309;28;20132;-78
2021/03/21 06:41:04;;;;;;;3.40;1.50;;;;;;;22.22;37.27;94606.22;5039678;28;20100;-77
2021/03/21 06:44:03;;;;;;;3.83;1.80;;;;;;;22.40;37.36;94636.19;5043294;28;20025;-78
2021/03/21 06:46:35;;;;;;;3.97;1.67;;;;;;;22.43;37.53;94637.88;5043806;28;20021;-76
2021/03/21 06:49:09;;;;;;;2.70;1.40;;;;;;;22.47;37.38;94622.03;5040123;28;20024;-77
2021/03/21 06:51:49;;;;;;;3.55;1.70;;;;;;;22.47;37.23;94622.75;5042146;28;20528;-80
2021/03/21 06:54:14;;;;;;;3.20;1.50;;;;;;;22.54;37.10;94624.16;5040300;28;20047;-83
2021/03/21 06:56:49;;;;;;;3.78;1.50;;;;;;;22.56;37.30;94629.84;5039539;28;20320;-85
2021/03/21 06:59:33;;;;;;;3.85;2.08;;;;;;;22.58;37.30;94630.78;5042345;28;20047;-78
2021/03/21 07:02:29;;;;;;;3.10;1.40;;;;;;;22.65;37.13;94629.47;5045372;28;20045;-79
2021/03/21 07:05:34;;;;;;;4.07;1.90;;;;;;;22.71;37.29;94635.59;5036168;28;20028;-79
2021/03/21 07:08:18;;;;;;;3.92;1.63;;;;;;;22.87;36.99;94631.91;5045545;28;20033;-77
2021/03/21 07:10:47;;;;;;;3.45;1.77;;;;;;;22.88;36.48;94618.53;5038348;28;20025;-78
2021/03/21 07:13:51;;;;;;;3.05;1.30;;;;;;;23.03;36.45;94634.44;5041413;28;20414;-76
2021/03/21 07:16:50;;;;;;;4.10;1.38;;;;;;;23.14;36.29;94629.59;4990091;28;20030;-75
2021/03/21 07:19:41;;;;;;;4.03;2.13;;;;;;;23.20;36.13;94616.63;4989743;28;20152;-81
2021/03/21 07:22:24;;;;;;;;;;;;;;;23.32;35.81;94623.38;5034495;28;20288;-83
2021/03/21 07:24:56;;;;;;;3.60;1.65;;;;;;;23.40;35.86;94629.69;5063907;28;20294;-83
2021/03/21 07:27:45;;;;;;;3.17;1.38;;;;;;;23.44;35.31;94625.41;5041228;28;20120;-81
2021/03/21 07:30:47;;;;;;;4.10;1.65;;;;;;;23.60;35.25;94623.69;5039655;28;20125;-82
2021/03/21 07:33:31;;;;;;;3.45;1.67;;;;;;;23.59;35.25;94624.94;5062428;28;20032;-79
2021/03/21 07:36:13;;;;;;;3.05;1.42;;;;;;;23.74;35.12;94630.69;5048259;28;20045;-79
2021/03/21 07:39:04;;;;;;;3.30;1.75;;;;;;;23.84;34.70;94623.56;5043317;28;20034;-84
2021/03/21 07:41:51;;;;;;;4.30;1.60;;;;;;;23.90;34.61;94622.97;5028525;28;20531;-77
2021/03/21 07:44:55;;;;;;;4.25;1.70;;;;;;;23.99;34.82;94619.81;5046905;28;20462;-80
2021/03/21 07:47:40;;;;;;;2.97;1.50;;;;;;;24.10;34.64;94613.44;5053286;28;20358;-82
2021/03/21 07:50:26;;;;;;;4.63;1.67;;;;;;;24.16;34.40;94617.53;5026652;28;20029;-79
2021/03/21 07:53:11;;;;;;;3.25;1.30;;;;;;;24.09;34.09;94601.78;5042777;28;20537;-82
2021/03/21 07:55:41;;;;;;;5.70;2.45;;;;;;;24.32;33.76;94621.97;5041504;28;20086;-82
2021/03/21 07:58:27;;;;;;;10.13;1.70;;;;;;;24.27;32.96;94611.13;5046071;28;20033;-87
2021/03/21 08:00:53;;;;;;;3.53;1.52;;;;;;;24.25;34.29;94598.00;5046911;28;20052;-80
2021/03/21 08:03:35;;;;;;;3.70;1.42;;;;;;;24.04;33.61;94572.63;5046021;28;20464;-76
2021/03/21 08:06:01;;;;;;;2.75;1.42;;;;;;;24.41;33.86;94621.56;5046684;28;20024;-76
2021/03/21 08:08:28;;;;;;;3.97;1.80;;;;;;;24.45;33.43;94611.06;5040990;28;20043;-76
2021/03/21 08:11:01;;;;;;;3.28;1.65;;;;;;;24.49;33.98;94603.28;5049993;28;20013;-78
2021/03/21 08:13:38;;;;;;;2.88;1.50;;;;;;;24.38;33.48;94584.41;5047519;28;20120;-77
2021/03/21 08:16:04;;;;;;;2.90;1.38;;;;;;;24.55;33.71;94598.44;5044602;28;21069;-76
2021/03/21 08:18:33;;;;;;;3.97;1.65;;;;;;;24.59;33.76;94582.50;5050226;28;20049;-75
2021/03/21 08:21:01;;;;;;;1.98;1.23;;;;;;;24.66;33.71;94581.84;5064961;28;20456;-76
2021/03/21 08:23:42;;;;;;;2.47;1.50;;;;;;;24.53;33.84;94562.75;5062196;28;20029;-76
2021/03/21 08:26:10;;;;;;;3.67;1.50;;;;;;;24.66;33.56;94576.38;5047208;28;20021;-76
2021/03/21 08:28:55;;;;;;;3.40;1.73;;;;;;;24.74;33.58;94577.19;5042724;28;20049;-76
2021/03/21 08:32:06;;;;;;;2.97;1.70;;;;;;;24.82;33.29;94588.97;5051557;28;20033;-78
2021/03/21 08:34:47;;;;;;;2.08;1.60;;;;;;;24.77;33.24;94581.59;5032474;28;20037;-77
2021/03/21 08:37:27;;;;;;;3.95;1.60;;;;;;;24.87;33.28;94573.19;5045613;28;20264;-76
2021/03/21 08:39:54;;;;;;;2.08;1.40;;;;;;;24.88;33.02;94569.19;5047472;28;20607;-74
2021/03/21 08:42:30;;;;;;;2.97;1.77;;;;;;;24.86;33.28;94563.53;5041554;28;20560;-73
2021/03/21 08:45:38;;;;;;;3.40;1.60;;;;;;;24.90;33.30;94561.22;5050635;28;20024;-78
2021/03/21 08:48:13;;;;;;;2.47;1.38;;;;;;;25.16;32.68;94563.88;5044569;28;20524;-75
2021/03/21 08:50:43;;;;;;;3.28;1.48;;;;;;;25.22;32.71;94555.56;5035881;28;20035;-75
2021/03/21 08:53:29;;;;;;;2.30;1.23;;;;;;;25.29;32.85;94552.13;5035463;28;20055;-75
2021/03/21 08:56:19;;;;;;;2.33;1.40;;;;;;;25.25;32.86;94547.00;5034603;28;20025;-76
2021/03/21 08:58:46;;;;;;;3.45;1.65;;;;;;;25.40;32.47;94558.09;5039185;28;20033;-84
2021/03/21 09:01:23;;;;;;;2.97;1.65;;;;;;;25.39;32.51;94551.16;5022333;28;20037;-79
2021/03/21 09:03:49;;;;;;;3.45;1.25;;;;;;;25.40;32.50;94544.41;5036880;28;20025;-75
2021/03/21 09:06:42;;;;;;;3.78;1.45;;;;;;;25.44;32.61;94550.28;5029142;28;20025;-75
2021/03/21 09:09:16;;;;;;;5.88;1.58;;;;;;;25.49;32.39;94549.41;5041995;28;20029;-76
2021/03/21 09:11:41;;;;;;;2.63;1.40;;;;;;;25.50;32.59;94534.47;5036329;28;20066;-76
2021/03/21 09:14:12;;;;;;;3.03;1.60;;;;;;;25.49;32.83;94530.28;5035106;28;20037;-80
2021/03/21 09:16:56;;;;;;;4.22;1.88;;;;;;;25.59;32.49;94534.00;5040741;28;20025;-86
2021/03/21 09:19:24;;;;;;;2.70;1.50;;;;;;;25.63;32.53;94539.88;5042644;28;20029;-85
2021/03/21 09:21:49;;;;;;;2.67;1.60;;;;;;;25.63;32.46;94535.13;5040657;28;20596;-84
2021/03/21 09:24:23;;;;;;;2.25;1.40;;;;;;;25.68;32.59;94530.81;5026208;28;20030;-85
2021/03/21 09:26:49;;;;;;;2.45;1.50;;;;;;;25.56;32.54;94513.19;5045085;28;20045;-89
2021/03/21 09:29:22;;;;;;;2.13;1.38;;;;;;;25.72;32.21;94520.28;5024388;28;20410;-76
2021/03/21 09:31:48;;;;;;;1.92;1.33;;;;;;;25.74;32.52;94517.72;5039210;28;20060;-75
2021/03/21 09:34:25;;;;;;;3.63;1.58;;;;;;;25.77;32.53;94522.88;5053973;28;20033;-75
2021/03/21 09:37:05;;;;;;;3.35;1.40;;;;;;;25.80;32.50;94517.06;5037638;28;20045;-75
2021/03/21 09:39:32;;;;;;;2.75;1.70;;;;;;;25.60;32.45;94475.31;5041254;28;20444;-78
2021/03/21 09:41:57;;;;;;;3.20;1.80;;;;;;;25.87;32.10;94513.66;5019000;28;20017;-78
2021/03/21 09:44:36;;;;;;;2.25;1.60;;;;;;;25.89;32.37;94519.31;5039340;28;20025;-75
2021/03/21 09:47:29;;;;;;;2.33;1.60;;;;;;;25.91;32.25;94533.16;5059945;28;20033;-84
2021/03/21 09:50:32;;;;;;;2.72;1.10;;;;;;;25.92;32.72;94529.19;5045403;28;20065;-79
2021/03/21 09:53:36;;;;;;;3.10;1.90;;;;;;;26.05;32.68;94531.81;5044859;28;20035;-73
2021/03/21 09:56:44;;;;;;;5.50;1.80;;;;;;;26.04;32.43;94524.16;5034463;28;20469;-76
2021/03/21 09:59:41;;;;;;;6.45;2.20;;;;;;;25.99;32.01;94516.81;5047764;28;20063;-78
2021/03/21 10:02:51;;;;;;;3.63;1.73;;;;;;;26.01;32.49;94515.00;5044902;28;20031;-78
2021/03/21 10:05:26;;;;;;;2.97;1.80;;;;;;;25.99;32.25;94512.09;4989769;28;20112;-78
2021/03/21 10:07:59;;;;;;;3.00;2.03;;;;;;;26.00;32.23;94508.06;5033744;28;20043;-78
2021/03/21 10:10:27;;;;;;;2.70;1.58;;;;;;;26.05;32.15;94504.47;5052185;28;20033;-81
2021/03/21 10:12:52;;;;;;;2.92;1.75;;;;;;;26.07;32.28;94507.38;5036726;28;20060;-81
2021/03/21 10:15:24;;;;;;;6.07;1.63;;;;;;;26.10;32.40;94495.34;5038508;28;20100;-78
2021/03/21 10:17:51;;;;;;;2.63;1.70;;;;;;;25.90;32.08;94468.81;5037284;28;20038;-83
2021/03/21 10:20:18;;;;;;;2.60;2.10;;;;;;;26.14;32.38;94500.47;5028944;28;20123;-77
2021/03/21 10:22:43;;;;;;;3.08;1.63;;;;;;;26.10;32.54;94478.94;5050065;28;20028;-78
2021/03/21 10:25:08;;;;;;;3.25;1.85;;;;;;;26.12;32.56;94501.00;5036591;28;20079;-82
2021/03/21 10:27:38;;;;;;;3.25;1.90;;;;;;;26.15;32.74;94494.47;5041412;28;20498;-84
2021/03/21 10:30:42;;;;;;;3.00;1.67;;;;;;;26.14;33.17;94490.25;5039505;28;20049;-78
2021/03/21 10:33:07;;;;;;;5.80;1.83;;;;;;;26.18;32.74;94496.13;4999979;28;20034;-75
2021/03/21 10:35:32;;;;;;;3.05;1.67;;;;;;;26.04;32.54;94475.63;5008902;28;20048;-82
2021/03/21 10:38:12;;;;;;;14.65;2.05;;;;;;;25.88;33.13;94452.16;5026086;28;20044;-79
2021/03/21 10:40:42;;;;;;;3.95;1.95;;;;;;;26.22;33.08;94491.03;5041055;28;20033;-77
2021/03/21 10:43:10;;;;;;;3.58;1.75;;;;;;;26.22;33.04;94491.03;5044238;28;20466;-79
2021/03/21 10:45:36;;;;;;;2.80;1.70;;;;;;;26.21;33.24;94484.09;5047350;28;20075;-78
2021/03/21 10:48:28;;;;;;;2.97;1.80;;;;;;;26.23;33.28;94475.34;5044788;28;20029;-78
2021/03/21 10:51:03;;;;;;;3.75;2.00;;;;;;;26.22;33.20;94474.63;5050504;28;20028;-79
2021/03/21 10:53:40;;;;;;;5.20;2.00;;;;;;;26.24;33.33;94474.78;5043957;28;20056;-79
2021/03/21 10:56:17;;;;;;;5.60;2.10;;;;;;;26.17;33.44;94467.28;5053703;28;20115;-77
2021/03/21 10:58:45;;;;;;;2.72;1.63;;;;;;;26.23;33.38;94467.84;5042586;28;20099;-79
2021/03/21 11:01:17;;;;;;;3.55;1.63;;;;;;;26.22;33.21;94460.94;5053175;28;20025;-78
2021/03/21 11:03:57;;;;;;;4.35;1.67;;;;;;;26.21;33.03;94459.44;5040112;28;20030;-75
2021/03/21 11:06:23;;;;;;;4.15;1.80;;;;;;;26.17;32.89;94434.44;5050835;28;20033;-80
2021/03/21 11:08:49;;;;;;;3.63;1.95;;;;;;;26.37;33.08;94453.53;5038067;28;20635;-79
2021/03/21 11:11:24;;;;;;;4.45;1.90;;;;;;;26.42;32.79;94460.13;5058067;28;20029;-88
2021/03/21 11:13:50;;;;;;;2.92;1.80;;;;;;;26.48;32.58;94452.47;5047154;28;20040;-85
2021/03/21 11:16:21;;;;;;;3.70;1.90;;;;;;;26.47;32.63;94451.00;5045757;28;20028;-86
2021/03/21 11:18:52;;;;;;;2.97;1.88;;;;;;;26.21;32.52;94407.44;5046879;28;20398;-79
2021/03/21 11:21:17;;;;;;;3.10;1.50;;;;;;;26.49;32.92;94443.00;5048113;28;20052;-88
2021/03/21 11:23:49;;;;;;;3.13;1.98;;;;;;;26.44;32.87;94435.66;5046983;28;20489;-84
2021/03/21 11:26:20;;;;;;;5.43;1.90;;;;;;;26.31;32.52;94411.16;5045422;28;20025;-90
2021/03/21 11:28:46;;;;;;;3.72;2.00;;;;;;;26.30;32.86;94409.69;5032187;28;20036;-86
2021/03/21 11:31:15;;;;;;;4.13;1.90;;;;;;;26.09;32.33;94373.47;5025498;28;20040;-84
2021/03/21 11:33:43;;;;;;;2.97;1.60;;;;;;;26.43;32.60;94428.72;5045298;28;20115;-90
2021/03/21 11:36:09;;;;;;;4.47;1.73;;;;;;;26.52;32.67;94436.44;5050207;28;20132;-86
2021/03/21 11:38:37;;;;;;;3.13;1.83;;;;;;;26.33;32.42;94397.66;5044908;28;20043;-84
2021/03/21 11:41:04;;;;;;;3.33;1.65;;;;;;;26.56;32.59;94421.09;5043160;28;20025;-77
2021/03/21 11:43:30;;;;;;;3.25;1.73;;;;;;;26.58;32.32;94417.81;5057610;28;20040;-79
2021/03/21 11:46:13;;;;;;;3.90;1.77;;;;;;;26.57;32.42;94410.88;5045429;28;20029;-77
2021/03/21 11:48:39;;;;;;;3.30;2.10;;;;;;;26.25;32.21;94353.09;5037182;28;20114;-77
2021/03/21 11:51:05;;;;;;;3.78;1.98;;;;;;;26.52;32.46;94400.81;5040280;28;20079;-75
2021/03/21 11:53:32;;;;;;;6.53;1.98;;;;;;;26.39;32.47;94368.09;5045516;28;20059;-77
2021/03/21 11:56:10;;;;;;;2.97;1.75;;;;;;;26.67;32.25;94392.63;5048967;28;20640;-77
2021/03/21 11:58:39;;;;;;;4.60;2.10;;;;;;;26.71;32.34;94382.03;5041455;28;20037;-74
2021/03/21 12:01:16;;;;;;;3.13;1.73;;;;;;;26.55;32.18;94353.19;5032888;28;20024;-77
2021/03/21 12:03:47;;;;;;;3.50;2.00;;;;;;;26.76;32.01;94374.38;5032762;28;20108;-76
2021/03/21 12:06:20;;;;;;;4.28;1.55;;;;;;;26.82;32.28;94372.19;5044987;28;20498;-76
2021/03/21 12:08:46;;;;;;;2.95;1.80;;;;;;;26.82;32.27;94366.69;5034931;28;20022;-76
2021/03/21 12:11:25;;;;;;;2.50;1.50;;;;;;;26.74;31.91;94353.53;5032304;28;20102;-75
2021/03/21 12:13:53;;;;;;;4.60;2.20;;;;;;;26.74;31.95;94348.06;5042337;28;20037;-82